sensor_id;sensor_type;location;lat;lon;timestamp;pressure;altitude;pressure_sealevel;temperature;humidity
62694;BME280;48759;52.544;13.418;2023-02-16T00:01:15;101708.47;;;4.34;100.00
62694;BME280;48759;52.544;13.418;2023-02-16T00:03:42;101693.38;;;4.30;100.00
62694;BME280;48759;52.544;13.418;2023-02-16T00:06:10;101702.84;;;4.36;100.00
62694;BME280;48759;52.544;13.418;2023-02-16T00:08:41;101696.41;;;4.27;100.00
62694;BME280;48759;52.544;13.418;2023-02-16T00:11:13;101696.38;;;4.37;100.00
62694;BME280;48759;52.544;13.418;2023-02-16T00:13:59;101701.56;;;4.30;100.00
62694;BME280;48759;52.544;13.418;2023-02-16T00:16:26;101707.84;;;4.21;100.00
62694;BME280;48759;52.544;13.418;2023-02-16T00:18:53;101704.97;;;4.13;100.00
62694;BME280;48759;52.544;13.418;2023-02-16T00:21:21;101711.31;;;4.23;100.00
62694;BME280;48759;52.544;13.418;2023-02-16T00:23:48;101703.25;;;4.21;100.00
62694;BME280;48759;52.544;13.418;2023-02-16T00:26:16;101703.13;;;4.23;100.00
62694;BME280;48759;52.544;13.418;2023-02-16T00:28:44;101703.69;;;4.07;100.00
62694;BME280;48759;52.544;13.418;2023-02-16T00:31:16;101704.09;;;4.03;100.00
62694;BME280;48759;52.544;13.418;2023-02-16T00:33:43;101705.66;;;4.05;100.00
62694;BME280;48759;52.544;13.418;2023-02-16T00:36:10;101702.13;;;4.24;100.00
62694;BME280;48759;52.544;13.418;2023-02-16T00:38:38;101704.94;;;3.94;100.00
62694;BME280;48759;52.544;13.418;2023-02-16T00:41:05;101699.53;;;4.03;100.00
62694;BME280;48759;52.544;13.418;2023-02-16T00:43:59;101700.09;;;4.07;100.00
62694;BME280;48759;52.544;13.418;2023-02-16T00:46:26;101706.66;;;4.04;100.00
62694;BME280;48759;52.544;13.418;2023-02-16T00:48:53;101701.81;;;4.08;100.00
62694;BME280;48759;52.544;13.418;2023-02-16T00:51:19;101711.22;;;3.84;100.00
62694;BME280;48759;52.544;13.418;2023-02-16T00:53:47;101702.66;;;3.99;100.00
62694;BME280;48759;52.544;13.418;2023-02-16T00:56:17;101704.09;;;4.03;100.00
62694;BME280;48759;52.544;13.418;2023-02-16T00:58:46;101705.09;;;4.02;100.00
62694;BME280;48759;52.544;13.418;2023-02-16T01:01:16;101707.97;;;4.00;100.00
62694;BME280;48759;52.544;13.418;2023-02-16T01:03:44;101705.16;;;3.71;100.00
62694;BME280;48759;52.544;13.418;2023-02-16T01:06:10;101704.38;;;4.00;100.00
62694;BME280;48759;52.544;13.418;2023-02-16T01:09:05;101702.63;;;3.89;100.00
62694;BME280;48759;52.544;13.418;2023-02-16T01:11:54;101707.03;;;3.71;100.00
62694;BME280;48759;52.544;13.418;2023-02-16T01:14:21;101711.13;;;3.65;100.00
62694;BME280;48759;52.544;13.418;2023-02-16T01:16:47;101709.50;;;3.83;100.00
62694;BME280;48759;52.544;13.418;2023-02-16T01:19:14;101705.22;;;3.91;100.00
62694;BME280;48759;52.544;13.418;2023-02-16T01:21:41;101694.09;;;3.73;100.00
62694;BME280;48759;52.544;13.418;2023-02-16T01:24:09;101695.44;;;3.78;100.00
62694;BME280;48759;52.544;13.418;2023-02-16T01:26:38;101692.25;;;3.64;100.00
62694;BME280;48759;52.544;13.418;2023-02-16T01:29:05;101699.16;;;3.77;100.00
62694;BME280;48759;52.544;13.418;2023-02-16T01:31:32;101691.47;;;3.52;100.00
62694;BME280;48759;52.544;13.418;2023-02-16T01:33:58;101696.44;;;3.77;100.00
62694;BME280;48759;52.544;13.418;2023-02-16T01:36:28;101678.03;;;3.60;100.00
62694;BME280;48759;52.544;13.418;2023-02-16T01:38:56;101683.69;;;3.78;100.00
62694;BME280;48759;52.544;13.418;2023-02-16T01:41:33;101677.78;;;3.73;100.00
62694;BME280;48759;52.544;13.418;2023-02-16T01:44:04;101678.28;;;3.88;100.00
62694;BME280;48759;52.544;13.418;2023-02-16T01:46:38;101672.53;;;3.91;100.00
62694;BME280;48759;52.544;13.418;2023-02-16T01:49:11;101677.97;;;3.91;100.00
62694;BME280;48759;52.544;13.418;2023-02-16T01:51:46;101668.47;;;3.75;100.00
62694;BME280;48759;52.544;13.418;2023-02-16T01:54:24;101675.53;;;3.78;100.00
62694;BME280;48759;52.544;13.418;2023-02-16T01:56:57;101675.91;;;3.73;100.00
62694;BME280;48759;52.544;13.418;2023-02-16T01:59:38;101670.22;;;3.76;100.00
62694;BME280;48759;52.544;13.418;2023-02-16T02:02:11;101675.34;;;3.70;100.00
62694;BME280;48759;52.544;13.418;2023-02-16T02:04:42;101682.47;;;3.61;100.00
62694;BME280;48759;52.544;13.418;2023-02-16T02:07:33;101682.31;;;4.03;100.00
62694;BME280;48759;52.544;13.418;2023-02-16T02:10:09;101669.59;;;3.63;100.00
62694;BME280;48759;52.544;13.418;2023-02-16T02:12:45;101675.38;;;3.89;100.00
62694;BME280;48759;52.544;13.418;2023-02-16T02:15:16;101677.72;;;3.94;100.00
62694;BME280;48759;52.544;13.418;2023-02-16T02:17:43;101666.50;;;3.77;100.00
62694;BME280;48759;52.544;13.418;2023-02-16T02:20:15;101665.03;;;3.73;100.00
62694;BME280;48759;52.544;13.418;2023-02-16T02:23:15;101660.97;;;3.58;100.00
62694;BME280;48759;52.544;13.418;2023-02-16T02:26:32;101664.31;;;3.71;100.00
62694;BME280;48759;52.544;13.418;2023-02-16T02:29:09;101669.88;;;3.60;100.00
62694;BME280;48759;52.544;13.418;2023-02-16T02:31:47;101660.44;;;3.64;100.00
62694;BME280;48759;52.544;13.418;2023-02-16T02:34:21;101659.06;;;3.39;100.00
62694;BME280;48759;52.544;13.418;2023-02-16T02:36:57;101657.78;;;3.43;100.00
62694;BME280;48759;52.544;13.418;2023-02-16T02:39:33;101661.84;;;3.59;100.00
62694;BME280;48759;52.544;13.418;2023-02-16T02:42:09;101658.72;;;3.63;100.00
62694;BME280;48759;52.544;13.418;2023-02-16T02:44:45;101650.59;;;3.33;100.00
62694;BME280;48759;52.544;13.418;2023-02-16T02:47:13;101651.94;;;3.48;100.00
62694;BME280;48759;52.544;13.418;2023-02-16T02:49:47;101658.72;;;3.63;100.00
62694;BME280;48759;52.544;13.418;2023-02-16T02:52:14;101655.44;;;3.69;100.00
62694;BME280;48759;52.544;13.418;2023-02-16T02:54:41;101644.38;;;3.61;100.00
62694;BME280;48759;52.544;13.418;2023-02-16T02:57:31;101643.81;;;3.67;100.00
62694;BME280;48759;52.544;13.418;2023-02-16T03:00:19;101647.25;;;3.69;100.00
62694;BME280;48759;52.544;13.418;2023-02-16T03:03:07;101639.75;;;3.52;100.00
62694;BME280;48759;52.544;13.418;2023-02-16T03:05:38;101638.84;;;3.42;100.00
62694;BME280;48759;52.544;13.418;2023-02-16T03:08:09;101637.63;;;3.65;100.00
62694;BME280;48759;52.544;13.418;2023-02-16T03:10:41;101637.75;;;3.54;100.00
62694;BME280;48759;52.544;13.418;2023-02-16T03:13:31;101642.81;;;3.68;100.00
62694;BME280;48759;52.544;13.418;2023-02-16T03:16:02;101643.53;;;3.70;100.00
62694;BME280;48759;52.544;13.418;2023-02-16T03:18:31;101641.13;;;3.77;100.00
62694;BME280;48759;52.544;13.418;2023-02-16T03:21:18;101635.50;;;3.69;100.00
62694;BME280;48759;52.544;13.418;2023-02-16T03:24:04;101635.81;;;3.75;100.00
62694;BME280;48759;52.544;13.418;2023-02-16T03:26:50;101628.78;;;3.82;100.00
62694;BME280;48759;52.544;13.418;2023-02-16T03:29:37;101641.97;;;3.77;100.00
62694;BME280;48759;52.544;13.418;2023-02-16T03:32:04;101644.38;;;3.61;100.00
62694;BME280;48759;52.544;13.418;2023-02-16T03:34:32;101634.94;;;3.75;100.00
62694;BME280;48759;52.544;13.418;2023-02-16T03:37:01;101641.53;;;3.82;100.00
62694;BME280;48759;52.544;13.418;2023-02-16T03:39:28;101645.28;;;3.81;100.00
62694;BME280;48759;52.544;13.418;2023-02-16T03:41:56;101631.66;;;3.71;100.00
62694;BME280;48759;52.544;13.418;2023-02-16T03:44:23;101635.84;;;3.95;100.00
62694;BME280;48759;52.544;13.418;2023-02-16T03:46:53;101627.81;;;3.83;100.00
62694;BME280;48759;52.544;13.418;2023-02-16T03:49:20;101627.66;;;3.85;100.00
62694;BME280;48759;52.544;13.418;2023-02-16T03:51:46;101632.38;;;3.83;100.00
62694;BME280;48759;52.544;13.418;2023-02-16T03:54:13;101626.81;;;3.84;100.00
62694;BME280;48759;52.544;13.418;2023-02-16T03:56:40;101638.97;;;3.80;100.00
62694;BME280;48759;52.544;13.418;2023-02-16T03:59:06;101634.38;;;3.71;100.00
62694;BME280;48759;52.544;13.418;2023-02-16T04:01:33;101634.06;;;3.65;100.00
62694;BME280;48759;52.544;13.418;2023-02-16T04:04:01;101625.88;;;3.65;100.00
62694;BME280;48759;52.544;13.418;2023-02-16T04:06:28;101631.03;;;3.58;100.00
62694;BME280;48759;52.544;13.418;2023-02-16T04:08:54;101629.44;;;3.46;100.00
62694;BME280;48759;52.544;13.418;2023-02-16T04:11:21;101633.91;;;3.57;100.00
62694;BME280;48759;52.544;13.418;2023-02-16T04:14:05;101629.13;;;3.39;100.00
62694;BME280;48759;52.544;13.418;2023-02-16T04:16:32;101637.75;;;3.54;100.00
62694;BME280;48759;52.544;13.418;2023-02-16T04:18:59;101635.19;;;3.53;100.00
62694;BME280;48759;52.544;13.418;2023-02-16T04:21:27;101636.88;;;3.44;100.00
62694;BME280;48759;52.544;13.418;2023-02-16T04:23:53;101633.19;;;3.24;100.00
62694;BME280;48759;52.544;13.418;2023-02-16T04:26:20;101625.06;;;3.34;100.00
62694;BME280;48759;52.544;13.418;2023-02-16T04:28:46;101631.41;;;3.44;100.00
62694;BME280;48759;52.544;13.418;2023-02-16T04:31:13;101630.69;;;3.42;100.00
62694;BME280;48759;52.544;13.418;2023-02-16T04:33:40;101629.28;;;3.17;100.00
62694;BME280;48759;52.544;13.418;2023-02-16T04:36:07;101632.97;;;3.37;100.00
62694;BME280;48759;52.544;13.418;2023-02-16T04:38:35;101627.78;;;3.34;100.00
62694;BME280;48759;52.544;13.418;2023-02-16T04:41:02;101627.28;;;3.19;100.00
62694;BME280;48759;52.544;13.418;2023-02-16T04:43:28;101625.47;;;3.29;100.00
62694;BME280;48759;52.544;13.418;2023-02-16T04:45:56;101631.34;;;3.25;100.00
62694;BME280;48759;52.544;13.418;2023-02-16T04:48:23;101628.81;;;3.33;100.00
62694;BME280;48759;52.544;13.418;2023-02-16T04:50:50;101617.38;;;3.39;100.00
62694;BME280;48759;52.544;13.418;2023-02-16T04:53:16;101617.06;;;3.32;100.00
62694;BME280;48759;52.544;13.418;2023-02-16T04:55:46;101622.34;;;3.03;100.00
62694;BME280;48759;52.544;13.418;2023-02-16T04:58:12;101619.59;;;3.24;100.00
62694;BME280;48759;52.544;13.418;2023-02-16T05:00:39;101631.16;;;3.17;100.00
62694;BME280;48759;52.544;13.418;2023-02-16T05:03:06;101620.16;;;3.28;100.00
62694;BME280;48759;52.544;13.418;2023-02-16T05:05:32;101616.44;;;3.29;100.00
62694;BME280;48759;52.544;13.418;2023-02-16T05:08:00;101621.09;;;3.38;100.00
62694;BME280;48759;52.544;13.418;2023-02-16T05:10:26;101621.66;;;3.32;100.00
62694;BME280;48759;52.544;13.418;2023-02-16T05:12:54;101619.38;;;3.37;100.00
62694;BME280;48759;52.544;13.418;2023-02-16T05:15:38;101630.13;;;3.18;100.00
62694;BME280;48759;52.544;13.418;2023-02-16T05:18:05;101630.72;;;3.21;100.00
62694;BME280;48759;52.544;13.418;2023-02-16T05:20:31;101623.50;;;3.10;100.00
62694;BME280;48759;52.544;13.418;2023-02-16T05:23:16;101635.03;;;3.24;100.00
62694;BME280;48759;52.544;13.418;2023-02-16T05:25:42;101628.13;;;3.20;100.00
62694;BME280;48759;52.544;13.418;2023-02-16T05:28:11;101630.59;;;3.23;100.00
62694;BME280;48759;52.544;13.418;2023-02-16T05:30:37;101633.31;;;3.23;100.00
62694;BME280;48759;52.544;13.418;2023-02-16T05:33:04;101632.78;;;3.29;100.00
62694;BME280;48759;52.544;13.418;2023-02-16T05:35:32;101630.31;;;3.26;100.00
62694;BME280;48759;52.544;13.418;2023-02-16T05:37:58;101624.63;;;2.98;100.00
62694;BME280;48759;52.544;13.418;2023-02-16T05:40:25;101631.16;;;3.17;100.00
62694;BME280;48759;52.544;13.418;2023-02-16T05:42:52;101627.97;;;3.12;100.00
62694;BME280;48759;52.544;13.418;2023-02-16T05:45:20;101621.03;;;3.28;100.00
62694;BME280;48759;52.544;13.418;2023-02-16T05:47:47;101624.88;;;3.26;100.00
62694;BME280;48759;52.544;13.418;2023-02-16T05:50:13;101627.09;;;3.32;100.00
62694;BME280;48759;52.544;13.418;2023-02-16T05:52:40;101624.28;;;3.22;100.00
62694;BME280;48759;52.544;13.418;2023-02-16T05:55:15;101626.09;;;3.33;100.00
62694;BME280;48759;52.544;13.418;2023-02-16T05:57:41;101619.97;;;3.20;100.00
62694;BME280;48759;52.544;13.418;2023-02-16T06:00:12;101635.25;;;3.11;100.00
62694;BME280;48759;52.544;13.418;2023-02-16T06:02:41;101642.03;;;3.17;100.00
62694;BME280;48759;52.544;13.418;2023-02-16T06:05:07;101648.81;;;3.01;100.00
62694;BME280;48759;52.544;13.418;2023-02-16T06:07:34;101653.16;;;2.83;100.00
62694;BME280;48759;52.544;13.418;2023-02-16T06:10:01;101647.53;;;3.05;100.00
62694;BME280;48759;52.544;13.418;2023-02-16T06:12:28;101642.91;;;2.96;100.00
62694;BME280;48759;52.544;13.418;2023-02-16T06:15:07;101636.41;;;2.88;100.00
62694;BME280;48759;52.544;13.418;2023-02-16T06:17:34;101628.50;;;2.54;100.00
62694;BME280;48759;52.544;13.418;2023-02-16T06:20:02;101640.09;;;2.77;100.00
62694;BME280;48759;52.544;13.418;2023-02-16T06:22:29;101638.38;;;2.76;100.00
62694;BME280;48759;52.544;13.418;2023-02-16T06:24:56;101636.34;;;2.99;100.00
62694;BME280;48759;52.544;13.418;2023-02-16T06:27:22;101643.03;;;3.16;100.00
62694;BME280;48759;52.544;13.418;2023-02-16T06:29:49;101643.53;;;3.30;100.00
62694;BME280;48759;52.544;13.418;2023-02-16T06:32:16;101644.19;;;3.23;100.00
62694;BME280;48759;52.544;13.418;2023-02-16T06:34:43;101649.91;;;3.20;100.00
62694;BME280;48759;52.544;13.418;2023-02-16T06:37:11;101654.47;;;3.09;100.00
62694;BME280;48759;52.544;13.418;2023-02-16T06:39:37;101656.31;;;2.88;100.00
62694;BME280;48759;52.544;13.418;2023-02-16T06:42:04;101649.28;;;3.06;100.00
62694;BME280;48759;52.544;13.418;2023-02-16T06:44:31;101657.31;;;3.18;100.00
62694;BME280;48759;52.544;13.418;2023-02-16T06:46:58;101655.53;;;3.28;100.00
62694;BME280;48759;52.544;13.418;2023-02-16T06:49:24;101665.50;;;3.38;100.00
62694;BME280;48759;52.544;13.418;2023-02-16T06:51:51;101661.19;;;3.36;100.00
62694;BME280;48759;52.544;13.418;2023-02-16T06:54:19;101663.59;;;3.08;100.00
62694;BME280;48759;52.544;13.418;2023-02-16T06:56:46;101668.09;;;3.40;100.00
62694;BME280;48759;52.544;13.418;2023-02-16T06:59:13;101666.50;;;3.77;100.00
62694;BME280;48759;52.544;13.418;2023-02-16T07:01:39;101659.25;;;3.57;100.00
62694;BME280;48759;52.544;13.418;2023-02-16T07:04:06;101663.00;;;3.56;100.00
62694;BME280;48759;52.544;13.418;2023-02-16T07:06:33;101662.63;;;3.90;100.00
62694;BME280;48759;52.544;13.418;2023-02-16T07:09:00;101667.53;;;3.96;100.00
62694;BME280;48759;52.544;13.418;2023-02-16T07:11:30;101669.97;;;3.99;100.00
62694;BME280;48759;52.544;13.418;2023-02-16T07:13:57;101664.78;;;3.86;100.00
62694;BME280;48759;52.544;13.418;2023-02-16T07:16:24;101660.53;;;4.03;100.00
62694;BME280;48759;52.544;13.418;2023-02-16T07:18:50;101660.06;;;3.88;100.00
62694;BME280;48759;52.544;13.418;2023-02-16T07:21:17;101663.63;;;3.89;100.00
62694;BME280;48759;52.544;13.418;2023-02-16T07:23:44;101660.91;;;3.89;100.00
62694;BME280;48759;52.544;13.418;2023-02-16T07:26:11;101655.41;;;3.60;100.00
62694;BME280;48759;52.544;13.418;2023-02-16T07:28:39;101658.06;;;4.00;100.00
62694;BME280;48759;52.544;13.418;2023-02-16T07:31:07;101651.94;;;4.17;100.00
62694;BME280;48759;52.544;13.418;2023-02-16T07:33:34;101652.38;;;4.32;100.00
62694;BME280;48759;52.544;13.418;2023-02-16T07:36:01;101659.53;;;4.52;100.00
62694;BME280;48759;52.544;13.418;2023-02-16T07:38:28;101648.34;;;4.65;100.00
62694;BME280;48759;52.544;13.418;2023-02-16T07:40:56;101643.03;;;4.44;100.00
62694;BME280;48759;52.544;13.418;2023-02-16T07:43:23;101644.44;;;4.77;100.00
62694;BME280;48759;52.544;13.418;2023-02-16T07:45:51;101643.81;;;4.92;100.00
62694;BME280;48759;52.544;13.418;2023-02-16T07:48:18;101647.53;;;5.20;100.00
62694;BME280;48759;52.544;13.418;2023-02-16T07:50:45;101654.72;;;5.21;100.00
62694;BME280;48759;52.544;13.418;2023-02-16T07:53:11;101656.72;;;5.19;100.00
62694;BME280;48759;52.544;13.418;2023-02-16T07:55:38;101664.50;;;4.95;100.00
62694;BME280;48759;52.544;13.418;2023-02-16T07:58:06;101657.72;;;4.99;100.00
62694;BME280;48759;52.544;13.418;2023-02-16T08:00:33;101659.59;;;5.08;100.00
62694;BME280;48759;52.544;13.418;2023-02-16T08:03:01;101655.50;;;5.31;100.00
62694;BME280;48759;52.544;13.418;2023-02-16T08:05:28;101668.50;;;5.00;100.00
62694;BME280;48759;52.544;13.418;2023-02-16T08:07:55;101667.63;;;5.00;100.00
62694;BME280;48759;52.544;13.418;2023-02-16T08:10:21;101676.38;;;5.13;100.00
62694;BME280;48759;52.544;13.418;2023-02-16T08:12:48;101672.22;;;4.99;100.00
62694;BME280;48759;52.544;13.418;2023-02-16T08:15:15;101672.63;;;5.14;100.00
62694;BME280;48759;52.544;13.418;2023-02-16T08:17:41;101673.34;;;5.16;100.00
62694;BME280;48759;52.544;13.418;2023-02-16T08:20:10;101675.22;;;5.06;100.00
62694;BME280;48759;52.544;13.418;2023-02-16T08:22:37;101679.44;;;4.91;100.00
62694;BME280;48759;52.544;13.418;2023-02-16T08:25:04;101674.28;;;4.97;100.00
62694;BME280;48759;52.544;13.418;2023-02-16T08:27:32;101675.47;;;4.56;100.00
62694;BME280;48759;52.544;13.418;2023-02-16T08:29:58;101662.53;;;4.68;100.00
62694;BME280;48759;52.544;13.418;2023-02-16T08:32:25;101680.28;;;5.01;100.00
62694;BME280;48759;52.544;13.418;2023-02-16T08:34:52;101681.25;;;5.10;100.00
62694;BME280;48759;52.544;13.418;2023-02-16T08:37:20;101682.28;;;4.99;100.00
62694;BME280;48759;52.544;13.418;2023-02-16T08:39:47;101672.56;;;4.87;100.00
62694;BME280;48759;52.544;13.418;2023-02-16T08:42:14;101664.53;;;4.76;100.00
62694;BME280;48759;52.544;13.418;2023-02-16T08:44:41;101679.75;;;4.69;100.00
62694;BME280;48759;52.544;13.418;2023-02-16T08:47:08;101672.34;;;5.08;100.00
62694;BME280;48759;52.544;13.418;2023-02-16T08:49:35;101666.63;;;5.20;100.00
62694;BME280;48759;52.544;13.418;2023-02-16T08:52:03;101653.09;;;5.56;100.00
62694;BME280;48759;52.544;13.418;2023-02-16T08:54:33;101658.56;;;5.56;100.00
62694;BME280;48759;52.544;13.418;2023-02-16T08:57:08;101661.47;;;5.17;100.00
62694;BME280;48759;52.544;13.418;2023-02-16T08:59:34;101656.09;;;5.35;100.00
62694;BME280;48759;52.544;13.418;2023-02-16T09:02:01;101650.47;;;5.64;100.00
62694;BME280;48759;52.544;13.418;2023-02-16T09:04:29;101660.69;;;5.89;100.00
62694;BME280;48759;52.544;13.418;2023-02-16T09:06:56;101652.91;;;5.67;100.00
62694;BME280;48759;52.544;13.418;2023-02-16T09:09:24;101655.72;;;6.02;100.00
62694;BME280;48759;52.544;13.418;2023-02-16T09:11:53;101649.63;;;6.08;100.00
62694;BME280;48759;52.544;13.418;2023-02-16T09:14:20;101646.03;;;6.26;100.00
62694;BME280;48759;52.544;13.418;2023-02-16T09:16:47;101641.50;;;6.52;100.00
62694;BME280;48759;52.544;13.418;2023-02-16T09:19:15;101646.38;;;6.23;100.00
62694;BME280;48759;52.544;13.418;2023-02-16T09:21:43;101651.94;;;6.31;100.00
62694;BME280;48759;52.544;13.418;2023-02-16T09:24:11;101652.00;;;6.74;100.00
62694;BME280;48759;52.544;13.418;2023-02-16T09:26:38;101654.19;;;6.53;100.00
62694;BME280;48759;52.544;13.418;2023-02-16T09:29:09;101650.50;;;6.62;100.00
62694;BME280;48759;52.544;13.418;2023-02-16T09:31:36;101649.75;;;6.96;100.00
62694;BME280;48759;52.544;13.418;2023-02-16T09:34:05;101650.41;;;7.15;100.00
62694;BME280;48759;52.544;13.418;2023-02-16T09:36:33;101654.13;;;6.88;100.00
62694;BME280;48759;52.544;13.418;2023-02-16T09:39:00;101646.66;;;7.16;100.00
62694;BME280;48759;52.544;13.418;2023-02-16T09:41:35;101640.72;;;7.29;100.00
62694;BME280;48759;52.544;13.418;2023-02-16T09:44:14;101659.28;;;7.43;97.16
62694;BME280;48759;52.544;13.418;2023-02-16T09:46:45;101663.44;;;7.47;96.46
62694;BME280;48759;52.544;13.418;2023-02-16T09:49:22;101654.84;;;7.50;94.99
62694;BME280;48759;52.544;13.418;2023-02-16T09:51:57;101648.16;;;7.79;94.49
62694;BME280;48759;52.544;13.418;2023-02-16T09:54:32;101638.19;;;8.20;88.58
62694;BME280;48759;52.544;13.418;2023-02-16T09:57:04;101647.94;;;8.14;90.35
62694;BME280;48759;52.544;13.418;2023-02-16T09:59:42;101643.84;;;8.18;88.09
62694;BME280;48759;52.544;13.418;2023-02-16T10:02:32;101650.63;;;8.06;87.40
62694;BME280;48759;52.544;13.418;2023-02-16T10:05:23;101649.31;;;8.18;87.45
62694;BME280;48759;52.544;13.418;2023-02-16T10:07:58;101646.25;;;8.29;85.96
62694;BME280;48759;52.544;13.418;2023-02-16T10:10:30;101657.59;;;8.34;85.09
62694;BME280;48759;52.544;13.418;2023-02-16T10:13:02;101651.06;;;8.35;85.14
62694;BME280;48759;52.544;13.418;2023-02-16T10:15:32;101650.19;;;8.83;81.13
62694;BME280;48759;52.544;13.418;2023-02-16T10:18:03;101648.69;;;8.65;80.72
62694;BME280;48759;52.544;13.418;2023-02-16T10:20:34;101651.75;;;8.45;81.09
62694;BME280;48759;52.544;13.418;2023-02-16T10:23:07;101655.19;;;8.64;81.11
62694;BME280;48759;52.544;13.418;2023-02-16T10:25:40;101650.03;;;8.28;82.35
62694;BME280;48759;52.544;13.418;2023-02-16T10:28:14;101654.84;;;8.51;81.29
62694;BME280;48759;52.544;13.418;2023-02-16T10:30:48;101669.81;;;8.06;84.23
62694;BME280;48759;52.544;13.418;2023-02-16T10:33:24;101654.72;;;8.02;84.96
62694;BME280;48759;52.544;13.418;2023-02-16T10:35:57;101660.56;;;8.07;84.52
62694;BME280;48759;52.544;13.418;2023-02-16T10:38:30;101656.53;;;8.27;82.29
62694;BME280;48759;52.544;13.418;2023-02-16T10:41:02;101640.13;;;8.43;82.04
62694;BME280;48759;52.544;13.418;2023-02-16T10:43:40;101635.13;;;8.71;78.49
62694;BME280;48759;52.544;13.418;2023-02-16T10:46:14;101635.28;;;8.94;77.21
62694;BME280;48759;52.544;13.418;2023-02-16T10:48:43;101637.63;;;9.21;76.14
62694;BME280;48759;52.544;13.418;2023-02-16T10:51:13;101629.00;;;9.33;74.87
62694;BME280;48759;52.544;13.418;2023-02-16T10:53:45;101626.63;;;9.38;73.78
62694;BME280;48759;52.544;13.418;2023-02-16T10:56:38;101625.28;;;9.17;72.83
62694;BME280;48759;52.544;13.418;2023-02-16T10:59:13;101627.00;;;9.18;72.86
62694;BME280;48759;52.544;13.418;2023-02-16T11:01:44;101628.00;;;9.26;73.36
62694;BME280;48759;52.544;13.418;2023-02-16T11:04:30;101618.00;;;9.49;72.37
62694;BME280;48759;52.544;13.418;2023-02-16T11:07:02;101623.72;;;9.23;72.33
62694;BME280;48759;52.544;13.418;2023-02-16T11:09:30;101620.22;;;8.82;73.35
62694;BME280;48759;52.544;13.418;2023-02-16T11:11:57;101620.06;;;9.31;72.51
62694;BME280;48759;52.544;13.418;2023-02-16T11:14:27;101620.97;;;9.15;72.73
62694;BME280;48759;52.544;13.418;2023-02-16T11:17:08;101621.63;;;9.33;72.37
62694;BME280;48759;52.544;13.418;2023-02-16T11:19:37;101615.00;;;9.11;73.52
62694;BME280;48759;52.544;13.418;2023-02-16T11:22:06;101609.06;;;9.47;72.21
62694;BME280;48759;52.544;13.418;2023-02-16T11:24:36;101617.59;;;8.97;73.50
62694;BME280;48759;52.544;13.418;2023-02-16T11:27:05;101619.06;;;9.40;73.08
62694;BME280;48759;52.544;13.418;2023-02-16T11:29:32;101601.81;;;9.93;70.15
62694;BME280;48759;52.544;13.418;2023-02-16T11:32:08;101605.81;;;9.51;70.99
62694;BME280;48759;52.544;13.418;2023-02-16T11:34:39;101606.25;;;9.63;70.16
62694;BME280;48759;52.544;13.418;2023-02-16T11:37:13;101591.25;;;10.05;69.46
62694;BME280;48759;52.544;13.418;2023-02-16T11:39:48;101601.16;;;10.36;67.75
62694;BME280;48759;52.544;13.418;2023-02-16T11:42:23;101593.38;;;9.94;68.24
62694;BME280;48759;52.544;13.418;2023-02-16T11:44:54;101585.78;;;9.96;69.21
62694;BME280;48759;52.544;13.418;2023-02-16T11:47:24;101585.28;;;10.24;67.18
62694;BME280;48759;52.544;13.418;2023-02-16T11:50:12;101584.16;;;10.33;66.96
62694;BME280;48759;52.544;13.418;2023-02-16T11:52:43;101583.22;;;10.18;67.75
62694;BME280;48759;52.544;13.418;2023-02-16T11:55:19;101590.56;;;10.56;66.28
62694;BME280;48759;52.544;13.418;2023-02-16T11:57:46;101578.41;;;10.65;65.22
62694;BME280;48759;52.544;13.418;2023-02-16T12:00:15;101572.50;;;10.54;65.55
62694;BME280;48759;52.544;13.418;2023-02-16T12:03:11;101580.00;;;10.60;65.10
62694;BME280;48759;52.544;13.418;2023-02-16T12:05:51;101583.72;;;10.44;64.99
62694;BME280;48759;52.544;13.418;2023-02-16T12:08:40;101580.06;;;10.52;64.44
62694;BME280;48759;52.544;13.418;2023-02-16T12:11:26;101571.47;;;10.55;64.45
62694;BME280;48759;52.544;13.418;2023-02-16T12:14:06;101566.22;;;10.97;63.23
62694;BME280;48759;52.544;13.418;2023-02-16T12:16:42;101570.47;;;10.70;62.94
62694;BME280;48759;52.544;13.418;2023-02-16T12:19:30;101573.41;;;10.69;63.40
62694;BME280;48759;52.544;13.418;2023-02-16T12:22:04;101568.88;;;10.91;62.57
62694;BME280;48759;52.544;13.418;2023-02-16T12:24:42;101567.44;;;11.54;61.42
62694;BME280;48759;52.544;13.418;2023-02-16T12:27:16;101563.44;;;11.12;62.11
62694;BME280;48759;52.544;13.418;2023-02-16T12:29:49;101561.78;;;11.11;62.23
62694;BME280;48759;52.544;13.418;2023-02-16T12:32:32;101559.66;;;11.13;61.76
62694;BME280;48759;52.544;13.418;2023-02-16T12:35:12;101557.00;;;11.34;61.38
62694;BME280;48759;52.544;13.418;2023-02-16T12:37:43;101559.75;;;11.20;61.44
62694;BME280;48759;52.544;13.418;2023-02-16T12:40:20;101557.00;;;11.34;60.84
62694;BME280;48759;52.544;13.418;2023-02-16T12:42:55;101562.31;;;11.50;61.21
62694;BME280;48759;52.544;13.418;2023-02-16T12:45:31;101561.72;;;11.70;59.96
62694;BME280;48759;52.544;13.418;2023-02-16T12:48:00;101554.50;;;11.69;59.43
62694;BME280;48759;52.544;13.418;2023-02-16T12:50:33;101550.41;;;11.35;59.97
62694;BME280;48759;52.544;13.418;2023-02-16T12:53:04;101550.72;;;10.96;60.80
62694;BME280;48759;52.544;13.418;2023-02-16T12:55:37;101554.44;;;11.03;61.33
62694;BME280;48759;52.544;13.418;2023-02-16T12:58:13;101551.38;;;10.98;61.29
62694;BME280;48759;52.544;13.418;2023-02-16T13:00:43;101541.81;;;11.09;61.30